Time;durP1;ratioP1;P1;durP2;ratioP2;P2;SDS_P1;SDS_P2;PMS_P1;PMS_P2;Temp;Humidity;BMP_temperature;BMP_pressure;BME280_temperature;BME280_humidity;BME280_pressure;Samples;Min_cycle;Max_cycle;Signal;HPM_P1;HPM_P2
2022/03/13 00:00:16;;;;;;;11.27;5.03;;;;;;;2.24;63.96;96248.41;5057094;28;20315;-70
2022/03/13 00:02:44;;;;;;;13.33;4.13;;;;;;;2.03;64.24;96250.19;5056860;28;20216;-70
2022/03/13 00:05:14;;;;;;;5.73;2.57;;;;;;;2.27;64.32;96249.00;5057638;28;20748;-70
2022/03/13 00:07:41;;;;;;;4.90;3.00;;;;;;;2.04;63.68;96257.84;5057413;28;20220;-70
2022/03/13 00:10:09;;;;;;;4.23;2.97;;;;;;;1.94;64.59;96250.94;5057416;28;20202;-70
2022/03/13 00:12:35;;;;;;;4.60;2.23;;;;;;;2.14;63.63;96260.50;5057251;28;20227;-70
2022/03/13 00:15:12;;;;;;;5.70;2.90;;;;;;;2.36;62.50;96256.03;5058128;28;20203;-70
2022/03/13 00:17:39;;;;;;;5.37;3.50;;;;;;;2.43;62.38;96252.78;5057430;28;20208;-70
2022/03/13 00:20:08;;;;;;;10.50;4.20;;;;;;;2.44;61.76;96249.25;5057693;28;20238;-70
2022/03/13 00:22:36;;;;;;;4.27;3.03;;;;;;;2.33;62.24;96251.09;5057125;28;20290;-70
2022/03/13 00:25:05;;;;;;;3.23;2.67;;;;;;;2.26;62.70;96251.72;5057689;28;20206;-70
2022/03/13 00:27:34;;;;;;;10.57;3.60;;;;;;;2.22;62.15;96258.13;5057445;28;20295;-70
2022/03/13 00:30:01;;;;;;;4.83;2.37;;;;;;;2.29;62.68;96256.66;5056845;28;20210;-70
2022/03/13 00:32:28;;;;;;;3.97;1.80;;;;;;;2.32;61.64;96248.59;5056223;28;20212;-70
2022/03/13 00:34:56;;;;;;;7.83;4.67;;;;;;;2.35;61.68;96251.78;5057277;28;20200;-70
2022/03/13 00:37:22;;;;;;;8.13;3.50;;;;;;;2.05;62.64;96258.66;5057639;28;20291;-70
2022/03/13 00:39:51;;;;;;;6.10;3.00;;;;;;;2.03;62.42;96255.38;5056928;28;20726;-70
2022/03/13 00:42:18;;;;;;;3.70;3.40;;;;;;;2.19;62.66;96255.75;5056240;28;20253;-70
2022/03/13 00:44:45;;;;;;;11.13;4.27;;;;;;;2.21;62.84;96259.88;5057760;28;20200;-70
2022/03/13 00:47:11;;;;;;;7.23;2.97;;;;;;;1.91;63.10;96257.22;5056976;28;20220;-70
2022/03/13 00:49:37;;;;;;;8.43;3.80;;;;;;;2.01;62.22;96263.31;5056632;28;20627;-70
2022/03/13 00:52:06;;;;;;;7.40;3.13;;;;;;;2.17;62.57;96252.47;5057484;28;20212;-70
2022/03/13 00:54:33;;;;;;;9.70;2.83;;;;;;;2.00;62.29;96255.66;5057599;28;20224;-70
2022/03/13 00:57:00;;;;;;;4.83;2.37;;;;;;;1.93;62.51;96252.69;5056252;28;20204;-70
2022/03/13 00:59:26;;;;;;;6.37;3.90;;;;;;;1.86;63.03;96250.75;5056146;28;20204;-70
2022/03/13 01:01:53;;;;;;;34.10;2.73;;;;;;;1.98;62.25;96249.75;5057342;28;20695;-70
2022/03/13 01:04:19;;;;;;;6.30;2.93;;;;;;;1.84;62.47;96245.66;5055937;28;21048;-70
2022/03/13 01:06:46;;;;;;;8.37;3.30;;;;;;;1.84;62.35;96245.66;5056401;28;20207;-70
2022/03/13 01:09:14;;;;;;;4.87;2.83;;;;;;;1.95;62.71;96247.41;5057264;28;20237;-70
2022/03/13 01:11:41;;;;;;;8.27;3.63;;;;;;;1.81;62.79;96250.28;5056566;28;20202;-70
2022/03/13 01:14:08;;;;;;;2.87;2.67;;;;;;;1.85;61.80;96238.69;5055556;28;20232;-70
2022/03/13 01:16:37;;;;;;;4.73;2.63;;;;;;;1.94;61.87;96248.34;5056839;28;20215;-70
2022/03/13 01:19:04;;;;;;;3.77;2.57;;;;;;;1.75;62.80;96253.38;5055910;28;20227;-70
2022/03/13 01:21:34;;;;;;;5.80;2.03;;;;;;;1.86;62.72;96245.56;5056497;28;20227;-70
2022/03/13 01:24:21;;;;;;;5.47;2.20;;;;;;;1.80;63.21;96244.25;5056235;28;20227;-70
2022/03/13 01:26:53;;;;;;;5.47;3.03;;;;;;;1.45;63.92;96250.66;5056798;28;20206;-70
2022/03/13 01:29:20;;;;;;;5.03;2.93;;;;;;;1.37;63.65;96249.59;5056608;28;20208;-70
2022/03/13 01:31:48;;;;;;;4.67;2.90;;;;;;;1.40;63.53;96244.16;5056486;28;20578;-70
2022/03/13 01:34:36;;;;;;;8.70;2.20;;;;;;;1.32;64.28;96244.78;5055894;28;20223;-70
2022/03/13 01:37:03;;;;;;;4.70;1.83;;;;;;;1.26;64.29;96240.06;5056132;28;20200;-70
2022/03/13 01:39:31;;;;;;;12.90;2.90;;;;;;;1.53;63.54;96242.25;5056507;28;20205;-70
2022/03/13 01:41:57;;;;;;;8.40;3.07;;;;;;;1.38;63.55;96239.09;5056612;28;20220;-70
2022/03/13 01:44:24;;;;;;;3.87;2.23;;;;;;;1.31;63.88;96245.72;5055623;28;20277;-70
2022/03/13 01:46:51;;;;;;;3.80;2.07;;;;;;;1.43;63.80;96244.75;5056410;28;20201;-70
2022/03/13 01:49:18;;;;;;;5.00;1.80;;;;;;;1.44;63.68;96229.97;5056255;28;20458;-70
2022/03/13 01:51:45;;;;;;;4.40;2.37;;;;;;;1.38;63.55;96235.69;5056582;28;20193;-70
2022/03/13 01:54:13;;;;;;;2.83;2.27;;;;;;;1.23;64.29;96232.53;5055358;28;20767;-70
2022/03/13 01:56:42;;;;;;;6.00;2.43;;;;;;;1.54;64.35;96225.69;5056363;28;20209;-70
2022/03/13 01:59:11;;;;;;;3.20;1.90;;;;;;;1.09;64.93;96241.50;5055690;28;20948;-70
2022/03/13 02:01:38;;;;;;;39.13;2.33;;;;;;;1.02;65.96;96232.53;5055579;28;20231;-70
2022/03/13 02:04:05;;;;;;;7.73;3.17;;;;;;;1.05;63.90;96232.31;5056327;28;20699;-70
2022/03/13 02:06:32;;;;;;;3.80;2.80;;;;;;;1.09;64.11;96229.34;5056282;28;20208;-70
2022/03/13 02:08:58;;;;;;;3.33;2.30;;;;;;;1.17;64.24;96229.56;5055899;28;20204;-70
2022/03/13 02:11:28;;;;;;;3.17;1.70;;;;;;;1.24;64.26;96220.38;5056069;28;20201;-70
2022/03/13 02:13:56;;;;;;;1.87;1.60;;;;;;;1.36;64.36;96224.56;5064080;28;20220;-69
2022/03/13 02:16:23;;;;;;;2.47;2.27;;;;;;;1.26;64.05;96221.91;5066591;28;20205;-69
2022/03/13 02:18:51;;;;;;;4.60;2.37;;;;;;;1.17;64.53;96231.34;5067466;28;20221;-69
2022/03/13 02:21:18;;;;;;;3.10;2.13;;;;;;;1.11;64.49;96224.03;5067101;28;20228;-69
2022/03/13 02:23:46;;;;;;;6.07;3.30;;;;;;;1.16;64.69;96216.72;5067418;28;20235;-69
2022/03/13 02:26:13;;;;;;;3.73;2.97;;;;;;;1.02;63.61;96222.16;5066577;28;20296;-70
2022/03/13 02:28:49;;;;;;;1.53;1.43;;;;;;;1.23;63.78;96216.97;5064745;28;20200;-70
2022/03/13 02:31:24;;;;;;;2.33;1.73;;;;;;;1.21;63.32;96213.66;5065622;28;20204;-70
2022/03/13 02:33:53;;;;;;;4.37;2.63;;;;;;;1.02;64.41;96222.16;5068816;28;20228;-70
2022/03/13 02:36:24;;;;;;;7.73;2.37;;;;;;;1.19;64.78;96219.09;5069708;28;20212;-70
2022/03/13 02:38:52;;;;;;;3.60;2.83;;;;;;;1.18;64.40;96212.25;5067372;28;20224;-70
2022/03/13 02:41:19;;;;;;;6.50;3.33;;;;;;;0.70;64.58;96232.47;5069603;28;20235;-70
2022/03/13 02:43:45;;;;;;;3.33;2.10;;;;;;;0.92;64.74;96229.03;5069646;28;20228;-70
2022/03/13 02:46:19;;;;;;;2.23;2.03;;;;;;;1.02;63.40;96217.81;5069110;28;20212;-70
2022/03/13 02:48:45;;;;;;;9.57;2.43;;;;;;;0.75;63.29;96224.31;5067736;28;20205;-70
2022/03/13 02:51:12;;;;;;;5.33;2.53;;;;;;;0.78;64.17;96224.09;5067673;28;20209;-70
2022/03/13 02:53:39;;;;;;;2.37;2.07;;;;;;;0.72;64.81;96215.00;5067799;28;20229;-70
2022/03/13 02:56:07;;;;;;;3.93;2.23;;;;;;;0.74;64.69;96212.31;5066612;28;20254;-69
2022/03/13 02:58:34;;;;;;;4.03;2.57;;;;;;;0.55;65.10;96206.03;5067808;28;20231;-69
2022/03/13 03:01:00;;;;;;;2.53;2.07;;;;;;;0.60;64.75;96215.97;5066622;28;20232;-69
2022/03/13 03:03:28;;;;;;;3.70;3.17;;;;;;;0.55;65.33;96216.41;5066619;28;20224;-70
2022/03/13 03:05:54;;;;;;;12.60;2.00;;;;;;;0.38;65.24;96217.72;5067739;28;20622;-69
2022/03/13 03:08:21;;;;;;;2.97;1.90;;;;;;;0.41;64.93;96221.81;5067079;28;20695;-69
2022/03/13 03:10:48;;;;;;;4.53;2.47;;;;;;;0.32;65.35;96215.59;5065209;28;20299;-69
2022/03/13 03:13:17;;;;;;;2.57;2.20;;;;;;;0.53;65.22;96216.53;5067002;28;20232;-69
2022/03/13 03:15:44;;;;;;;4.90;3.07;;;;;;;0.35;65.14;96214.53;5066778;28;20193;-69
2022/03/13 03:18:11;;;;;;;2.53;1.80;;;;;;;0.22;66.22;96219.00;5064100;28;20216;-69
2022/03/13 03:20:37;;;;;;;2.57;2.37;;;;;;;0.28;64.44;96208.16;5066686;28;20196;-69
2022/03/13 03:23:04;;;;;;;1.93;1.63;;;;;;;0.28;64.23;96213.34;5065918;28;20719;-69
2022/03/13 03:25:30;;;;;;;4.90;1.73;;;;;;;0.21;65.08;96206.97;5066731;28;20207;-69
2022/03/13 03:27:59;;;;;;;2.27;1.73;;;;;;;0.11;66.13;96203.44;5066961;28;20211;-69
2022/03/13 03:30:30;;;;;;;1.67;1.40;;;;;;;0.31;65.26;96216.53;5061689;28;20208;-70
2022/03/13 03:32:57;;;;;;;2.60;2.37;;;;;;;0.06;65.39;96211.56;5058064;28;20723;-69
2022/03/13 03:35:26;;;;;;;10.43;1.77;;;;;;;0.12;65.54;96216.25;5058585;28;20796;-69
2022/03/13 03:37:54;;;;;;;3.43;2.20;;;;;;;0.19;65.58;96219.22;5057788;28;21339;-69
2022/03/13 03:40:22;;;;;;;2.50;2.07;;;;;;;0.14;65.27;96224.75;5058589;28;20211;-70
2022/03/13 03:42:49;;;;;;;4.93;2.53;;;;;;;0.10;65.63;96233.69;5056327;28;20224;-70
2022/03/13 03:45:17;;;;;;;4.23;1.60;;;;;;;0.14;65.94;96236.88;5058877;28;20204;-70
2022/03/13 03:47:45;;;;;;;2.67;2.10;;;;;;;0.40;64.84;96236.56;5058797;28;20203;-69
2022/03/13 03:50:12;;;;;;;6.27;2.93;;;;;;;0.36;64.79;96236.94;5058388;28;20209;-69
2022/03/13 03:52:38;;;;;;;3.23;2.00;;;;;;;0.25;65.21;96235.13;5056620;28;20566;-69
2022/03/13 03:55:05;;;;;;;3.33;1.83;;;;;;;0.27;65.69;96242.81;5057750;28;20209;-70
2022/03/13 03:57:32;;;;;;;2.67;1.53;;;;;;;0.33;64.88;96248.34;5058415;28;20552;-70
2022/03/13 03:59:58;;;;;;;2.60;1.87;;;;;;;0.13;65.03;96243.81;5057871;28;20207;-70
2022/03/13 04:02:24;;;;;;;1.83;1.60;;;;;;;0.06;66.01;96245.22;5056778;28;20235;-70
2022/03/13 04:04:52;;;;;;;5.00;2.53;;;;;;;0.32;65.82;96245.84;5059325;28;20212;-69
2022/03/13 04:07:19;;;;;;;4.77;2.37;;;;;;;0.07;66.32;96240.88;5070516;28;20204;-69
2022/03/13 04:09:45;;;;;;;7.43;2.57;;;;;;;0.15;66.30;96246.28;5069795;28;20205;-69
2022/03/13 04:12:12;;;;;;;1.93;1.20;;;;;;;0.28;65.42;96245.28;5069809;28;20235;-69
2022/03/13 04:14:38;;;;;;;4.93;2.43;;;;;;;0.11;65.94;96244.88;5069689;28;20223;-69
2022/03/13 04:17:06;;;;;;;1.90;1.73;;;;;;;-0.08;66.22;96236.81;5070214;28;20269;-69
2022/03/13 04:19:32;;;;;;;2.23;1.87;;;;;;;-0.23;67.56;96231.94;5069175;28;20274;-69
2022/03/13 04:22:00;;;;;;;10.33;3.57;;;;;;;-0.03;67.05;96239.06;5069430;28;20227;-69
2022/03/13 04:24:29;;;;;;;1.60;1.50;;;;;;;-0.11;66.33;96231.88;5069471;28;20608;-69
2022/03/13 04:26:56;;;;;;;7.10;2.43;;;;;;;-0.16;65.73;96238.34;5070122;28;20238;-69
2022/03/13 04:29:23;;;;;;;5.90;1.47;;;;;;;-0.26;66.29;96237.34;5070255;28;20559;-69
2022/03/13 04:31:52;;;;;;;4.47;1.97;;;;;;;-0.17;66.27;96236.69;5069952;28;20204;-69
2022/03/13 04:34:18;;;;;;;3.53;2.30;;;;;;;-0.22;65.65;96238.78;5069780;28;20643;-69
2022/03/13 04:36:45;;;;;;;1.63;1.30;;;;;;;-0.30;66.16;96230.75;5068844;28;20212;-69
2022/03/13 04:39:14;;;;;;;3.03;2.03;;;;;;;-0.22;66.12;96236.19;5067832;28;20207;-69
2022/03/13 04:41:41;;;;;;;4.40;2.03;;;;;;;-0.35;66.42;96238.84;5060737;28;20232;-70
2022/03/13 04:44:09;;;;;;;2.33;1.73;;;;;;;-0.43;67.12;96243.75;5057035;28;21035;-70
2022/03/13 04:46:36;;;;;;;3.83;2.37;;;;;;;-0.60;67.72;96244.16;5057248;28;20207;-70
2022/03/13 04:49:02;;;;;;;3.90;2.50;;;;;;;-0.40;66.72;96250.47;5057042;28;20577;-70
2022/03/13 04:51:29;;;;;;;2.00;1.80;;;;;;;-0.38;66.93;96248.56;5057226;28;20656;-70
2022/03/13 04:53:55;;;;;;;1.77;1.53;;;;;;;-0.41;66.92;96251.41;5056420;28;20220;-70
2022/03/13 04:56:23;;;;;;;2.67;2.47;;;;;;;-0.15;65.89;96251.16;5056528;28;20207;-70
2022/03/13 04:58:50;;;;;;;1.83;1.40;;;;;;;-0.31;65.98;96260.16;5057479;28;20193;-70
2022/03/13 05:01:17;;;;;;;1.73;1.20;;;;;;;-0.37;66.44;96258.84;5056765;28;20228;-70
2022/03/13 05:03:43;;;;;;;4.10;2.57;;;;;;;-0.27;66.16;96251.22;5056291;28;20231;-70
2022/03/13 05:06:11;;;;;;;3.67;3.10;;;;;;;-0.42;66.48;96262.69;5057153;28;20208;-70
2022/03/13 05:08:39;;;;;;;6.77;2.37;;;;;;;-0.47;67.04;96267.34;5056804;28;20204;-70
2022/03/13 05:11:05;;;;;;;2.20;2.00;;;;;;;-0.58;67.39;96267.31;5056761;28;20735;-70
2022/03/13 05:13:34;;;;;;;2.63;2.13;;;;;;;-0.60;66.91;96270.03;5054124;28;20285;-70
2022/03/13 05:16:00;;;;;;;3.90;2.30;;;;;;;-0.56;67.50;96274.03;5056981;28;20208;-70
2022/03/13 05:18:29;;;;;;;2.60;2.37;;;;;;;-0.59;68.11;96276.00;5056975;28;20219;-70
2022/03/13 05:20:55;;;;;;;2.63;1.70;;;;;;;-0.62;68.13;96271.88;5056752;28;20258;-70
2022/03/13 05:23:24;;;;;;;3.00;2.23;;;;;;;-0.72;68.31;96264.06;5055930;28;20225;-70
2022/03/13 05:25:51;;;;;;;3.87;2.93;;;;;;;-0.68;67.70;96268.91;5057045;28;20707;-70
2022/03/13 05:28:17;;;;;;;1.93;1.73;;;;;;;-0.64;66.64;96272.94;5056459;28;20231;-70
2022/03/13 05:30:46;;;;;;;0.70;0.70;;;;;;;-0.55;66.61;96273.13;5056224;28;20208;-69
2022/03/13 05:33:13;;;;;;;5.53;1.67;;;;;;;-0.68;66.93;96281.84;5055106;28;20227;-69
2022/03/13 05:35:40;;;;;;;1.70;1.27;;;;;;;-0.63;67.65;96274.59;5056318;28;20204;-70
2022/03/13 05:38:06;;;;;;;2.17;1.97;;;;;;;-0.54;66.72;96274.75;5056284;28;20477;-69
2022/03/13 05:40:35;;;;;;;1.17;1.17;;;;;;;-0.77;67.23;96271.34;5055909;28;20211;-69
2022/03/13 05:43:03;;;;;;;3.33;2.60;;;;;;;-0.97;67.71;96285.66;5055109;28;20224;-69
2022/03/13 05:45:31;;;;;;;3.30;2.60;;;;;;;-0.70;67.94;96278.56;5056686;28;20211;-69
2022/03/13 05:48:06;;;;;;;7.17;2.87;;;;;;;-0.56;66.98;96284.41;5055768;28;20207;-69
2022/03/13 05:50:33;;;;;;;5.83;2.37;;;;;;;-0.98;67.21;96289.19;5055810;28;20680;-70
2022/03/13 05:52:59;;;;;;;3.67;2.03;;;;;;;-0.75;67.33;96288.41;5055504;28;20231;-70
2022/03/13 05:55:27;;;;;;;2.07;1.30;;;;;;;-0.66;68.25;96297.25;5055804;28;20817;-70
2022/03/13 05:57:54;;;;;;;1.60;1.50;;;;;;;-0.71;67.66;96291.56;5055974;28;20211;-70
2022/03/13 06:00:23;;;;;;;2.97;2.27;;;;;;;-0.61;68.30;96288.25;5056344;28;20301;-70
2022/03/13 06:02:50;;;;;;;1.00;1.00;;;;;;;-0.54;67.75;96289.44;5054327;28;20238;-70
2022/03/13 06:05:19;;;;;;;3.77;1.90;;;;;;;-0.42;67.64;96296.31;5056540;28;20200;-70
2022/03/13 06:07:46;;;;;;;2.30;2.10;;;;;;;-0.50;67.71;96296.06;5059939;28;20486;-70
2022/03/13 06:10:13;;;;;;;4.97;2.87;;;;;;;-0.39;67.93;96306.47;5060326;28;20204;-69
2022/03/13 06:12:40;;;;;;;2.43;2.27;;;;;;;-0.40;67.41;96305.63;5058671;28;20228;-70
2022/03/13 06:15:11;;;;;;;1.33;1.23;;;;;;;-0.26;67.67;96304.66;5059634;28;20973;-69
2022/03/13 06:17:40;;;;;;;6.57;3.57;;;;;;;-0.10;67.23;96311.22;5060010;28;20296;-69
2022/03/13 06:20:08;;;;;;;1.27;1.00;;;;;;;-0.13;67.70;96308.81;5059101;28;20212;-69
2022/03/13 06:22:36;;;;;;;0.97;0.97;;;;;;;-0.09;68.13;96312.03;5058647;28;20227;-69
2022/03/13 06:25:03;;;;;;;5.20;1.87;;;;;;;-0.04;67.00;96309.94;5059963;28;20855;-69
2022/03/13 06:27:30;;;;;;;2.10;2.00;;;;;;;0.05;67.31;96303.16;5059267;28;20205;-70
2022/03/13 06:30:10;;;;;;;3.87;1.50;;;;;;;-0.02;67.79;96308.88;5059867;28;20881;-70
2022/03/13 06:32:37;;;;;;;5.73;2.00;;;;;;;0.12;68.20;96309.50;5058682;28;20196;-70
2022/03/13 06:35:04;;;;;;;4.30;2.63;;;;;;;0.37;67.15;96316.31;5060237;28;20196;-69
2022/03/13 06:37:30;;;;;;;18.07;2.33;;;;;;;0.32;67.16;96308.88;5059621;28;20204;-69
2022/03/13 06:39:58;;;;;;;5.03;3.00;;;;;;;0.66;66.80;96320.97;5059286;28;20219;-70
2022/03/13 06:42:24;;;;;;;5.13;2.97;;;;;;;0.63;65.76;96326.38;5058748;28;20719;-70
2022/03/13 06:44:51;;;;;;;2.20;1.20;;;;;;;0.74;66.03;96321.22;5059312;28;20265;-69
2022/03/13 06:47:17;;;;;;;3.57;2.50;;;;;;;0.94;65.59;96323.09;5059156;28;20201;-70
2022/03/13 06:49:44;;;;;;;7.17;2.67;;;;;;;0.89;66.11;96325.22;5059690;28;20201;-70
2022/03/13 06:52:10;;;;;;;1.73;1.63;;;;;;;1.04;67.27;96316.28;5059373;28;20204;-70
2022/03/13 06:54:37;;;;;;;2.70;2.50;;;;;;;1.23;66.56;96320.78;5058924;28;20240;-70
2022/03/13 06:57:05;;;;;;;3.50;3.20;;;;;;;1.39;65.22;96320.41;5059274;28;20355;-70
2022/03/13 06:59:32;;;;;;;10.93;5.40;;;;;;;1.28;65.18;96323.81;5059598;28;20215;-70
2022/03/13 07:01:58;;;;;;;16.73;4.97;;;;;;;1.38;64.58;96322.16;5059297;28;20225;-70
2022/03/13 07:04:24;;;;;;;7.43;4.13;;;;;;;1.46;63.51;96330.16;5058780;28;20225;-70
2022/03/13 07:06:51;;;;;;;8.73;4.77;;;;;;;1.68;63.15;96321.50;5059508;28;20206;-70
2022/03/13 07:09:17;;;;;;;16.47;4.67;;;;;;;1.75;62.34;96326.09;5059342;28;20204;-70
2022/03/13 07:11:47;;;;;;;4.33;2.63;;;;;;;1.88;63.04;96324.16;5059286;28;20207;-70
2022/03/13 07:14:18;;;;;;;5.13;2.73;;;;;;;2.13;63.45;96319.47;5058390;28;20220;-70
2022/03/13 07:16:45;;;;;;;8.37;2.97;;;;;;;2.12;64.64;96315.22;5058324;28;20676;-70
2022/03/13 07:19:11;;;;;;;13.40;2.73;;;;;;;2.21;64.38;96316.25;5059328;28;20220;-70
2022/03/13 07:21:38;;;;;;;4.50;3.03;;;;;;;2.29;64.23;96314.69;5058484;28;20213;-70
2022/03/13 07:24:05;;;;;;;3.57;3.13;;;;;;;2.35;64.01;96319.38;5058222;28;20232;-70
2022/03/13 07:26:32;;;;;;;6.93;2.83;;;;;;;2.66;63.37;96315.88;5058616;28;20201;-70
2022/03/13 07:29:01;;;;;;;5.97;4.47;;;;;;;2.56;63.34;96323.63;5058553;28;20212;-70
2022/03/13 07:31:29;;;;;;;6.83;3.00;;;;;;;2.84;63.17;96316.94;5055931;28;20310;-70
2022/03/13 07:33:55;;;;;;;7.30;4.13;;;;;;;2.65;62.84;96312.47;5055929;28;20219;-71
2022/03/13 07:36:21;;;;;;;6.60;2.17;;;;;;;2.88;62.79;96316.59;5057173;28;20557;-70
2022/03/13 07:38:48;;;;;;;11.30;4.87;;;;;;;3.14;60.53;96318.66;5057219;28;20204;-71
2022/03/13 07:41:14;;;;;;;11.10;2.83;;;;;;;3.41;59.86;96323.25;5057092;28;20220;-71
2022/03/13 07:43:41;;;;;;;5.03;2.83;;;;;;;3.46;59.32;96326.28;5056386;28;20228;-70
2022/03/13 07:46:07;;;;;;;4.40;3.40;;;;;;;3.51;58.00;96324.94;5058370;28;20972;-70
2022/03/13 07:48:35;;;;;;;3.33;2.80;;;;;;;3.88;56.94;96321.63;5058568;28;20649;-71
2022/03/13 07:51:04;;;;;;;4.47;2.77;;;;;;;3.81;56.88;96312.66;5058597;28;20207;-70
2022/03/13 07:53:30;;;;;;;2.90;2.17;;;;;;;3.89;56.15;96331.06;5057553;28;20774;-70
2022/03/13 07:55:57;;;;;;;4.70;3.17;;;;;;;4.00;55.16;96315.31;5056460;28;20203;-70
2022/03/13 07:58:24;;;;;;;6.47;3.63;;;;;;;3.86;54.24;96314.88;5056706;28;20219;-70
2022/03/13 08:00:51;;;;;;;10.27;2.97;;;;;;;3.94;54.02;96308.03;5059479;28;20200;-70
2022/03/13 08:03:20;;;;;;;4.97;3.20;;;;;;;3.87;53.48;96319.97;5059177;28;20225;-70
2022/03/13 08:05:48;;;;;;;3.43;2.27;;;;;;;4.39;53.61;96311.75;5059850;28;20236;-70
2022/03/13 08:08:15;;;;;;;4.33;2.17;;;;;;;4.59;53.17;96313.38;5059202;28;20208;-70
2022/03/13 08:10:41;;;;;;;14.50;3.47;;;;;;;4.86;52.39;96325.59;5058321;28;20212;-70
2022/03/13 08:13:07;;;;;;;3.70;2.33;;;;;;;4.79;52.73;96328.06;5057229;28;20227;-70
2022/03/13 08:15:34;;;;;;;5.67;3.27;;;;;;;4.63;53.52;96317.38;5058025;28;20595;-70
2022/03/13 08:18:00;;;;;;;7.43;2.63;;;;;;;4.78;52.95;96321.19;5057676;28;20907;-71
2022/03/13 08:20:27;;;;;;;8.03;4.13;;;;;;;5.04;52.10;96328.28;5057585;28;20204;-70
2022/03/13 08:22:55;;;;;;;4.03;2.83;;;;;;;5.00;52.54;96322.53;5064023;28;20232;-70
2022/03/13 08:25:21;;;;;;;4.87;3.17;;;;;;;5.06;53.19;96321.13;5062707;28;20201;-70
2022/03/13 08:27:48;;;;;;;5.57;3.23;;;;;;;5.35;52.13;96327.91;5057201;28;20200;-69
2022/03/13 08:30:15;;;;;;;7.80;4.23;;;;;;;5.53;51.66;96327.00;5057611;28;20232;-69
2022/03/13 08:32:42;;;;;;;6.43;3.17;;;;;;;5.40;53.03;96322.22;5056503;28;20224;-70
2022/03/13 08:35:09;;;;;;;5.73;3.07;;;;;;;5.65;51.44;96320.63;5057537;28;20547;-70
2022/03/13 08:37:37;;;;;;;5.87;2.80;;;;;;;5.47;51.02;96324.13;5057336;28;20211;-70
2022/03/13 08:40:06;;;;;;;7.43;4.20;;;;;;;5.67;50.51;96325.72;5057036;28;20603;-70
2022/03/13 08:42:33;;;;;;;7.53;3.23;;;;;;;5.68;50.83;96315.09;5056090;28;21059;-69
2022/03/13 08:45:00;;;;;;;5.87;3.23;;;;;;;5.97;51.11;96320.19;5058211;28;20205;-70
2022/03/13 08:47:27;;;;;;;2.53;2.13;;;;;;;5.87;50.95;96317.66;5067455;28;20211;-70
2022/03/13 08:49:54;;;;;;;9.13;3.43;;;;;;;5.93;50.11;96321.47;5064342;28;20982;-70
2022/03/13 08:52:21;;;;;;;6.67;3.03;;;;;;;6.05;50.31;96318.50;5056280;28;20205;-71
2022/03/13 08:54:47;;;;;;;4.40;3.30;;;;;;;5.63;51.49;96333.00;5057192;28;20200;-70
2022/03/13 08:57:15;;;;;;;8.07;3.23;;;;;;;6.22;50.70;96315.91;5056986;28;20211;-71
2022/03/13 08:59:41;;;;;;;16.73;4.07;;;;;;;6.31;49.45;96312.41;5056503;28;20201;-71
2022/03/13 09:02:09;;;;;;;7.27;4.50;;;;;;;5.86;50.67;96317.81;5056604;28;20659;-72
2022/03/13 09:04:36;;;;;;;10.67;4.70;;;;;;;6.29;50.85;96306.47;5053305;28;20225;-69
2022/03/13 09:07:02;;;;;;;10.03;4.00;;;;;;;6.32;51.52;96310.59;5055884;28;20215;-72
2022/03/13 09:09:29;;;;;;;8.23;4.97;;;;;;;6.44;50.46;96310.22;5055443;28;20208;-69
2022/03/13 09:11:56;;;;;;;9.37;4.27;;;;;;;6.80;50.01;96310.03;5056609;28;20205;-69
2022/03/13 09:14:26;;;;;;;11.47;4.70;;;;;;;7.03;49.16;96307.75;5056133;28;20724;-69
2022/03/13 09:16:52;;;;;;;8.37;5.13;;;;;;;7.02;48.52;96306.09;5056329;28;21272;-69
2022/03/13 09:19:20;;;;;;;10.67;3.67;;;;;;;7.12;48.86;96304.19;5056537;28;20966;-69
2022/03/13 09:21:47;;;;;;;9.53;5.17;;;;;;;7.13;48.51;96304.03;5057077;28;20192;-70
2022/03/13 09:24:13;;;;;;;8.83;4.40;;;;;;;7.48;48.50;96299.47;5055409;28;20232;-69
2022/03/13 09:26:40;;;;;;;10.70;4.03;;;;;;;7.40;48.85;96296.81;5055929;28;20200;-69
2022/03/13 09:29:07;;;;;;;9.10;4.43;;;;;;;7.84;48.76;96290.47;5056834;28;20204;-70
2022/03/13 09:31:35;;;;;;;11.23;4.60;;;;;;;7.95;48.94;96292.78;5056483;28;20219;-70
2022/03/13 09:34:02;;;;;;;12.53;6.17;;;;;;;7.93;48.37;96284.25;5055425;28;20220;-69
2022/03/13 09:36:29;;;;;;;8.47;3.40;;;;;;;7.57;48.72;96295.91;5056361;28;20313;-69
2022/03/13 09:38:55;;;;;;;6.47;3.93;;;;;;;7.58;48.66;96288.88;5057057;28;20201;-69
2022/03/13 09:41:22;;;;;;;10.60;4.37;;;;;;;8.04;47.97;96281.31;5055321;28;20208;-69
2022/03/13 09:43:48;;;;;;;10.77;4.37;;;;;;;8.40;48.43;96286.19;5055031;28;20231;-69
2022/03/13 09:46:16;;;;;;;9.20;4.83;;;;;;;8.64;47.29;96286.19;5055948;28;20212;-70
2022/03/13 09:48:45;;;;;;;12.90;4.23;;;;;;;9.14;47.19;96285.81;5056307;28;20299;-69
2022/03/13 09:51:11;;;;;;;8.93;4.30;;;;;;;8.57;47.04;96280.75;5055723;28;20200;-69
2022/03/13 09:53:38;;;;;;;10.03;4.37;;;;;;;8.66;47.36;96278.97;5055345;28;20228;-69
2022/03/13 09:56:06;;;;;;;8.60;3.87;;;;;;;9.25;45.74;96277.59;5055283;28;20693;-69
2022/03/13 09:58:34;;;;;;;8.80;3.73;;;;;;;9.60;45.57;96281.56;5056083;28;20236;-70
2022/03/13 10:01:00;;;;;;;11.40;4.93;;;;;;;9.27;46.16;96280.06;5056047;28;20203;-69
2022/03/13 10:03:27;;;;;;;7.17;3.53;;;;;;;9.38;45.82;96280.50;5055532;28;20232;-70
2022/03/13 10:05:57;;;;;;;10.93;4.50;;;;;;;9.63;45.74;96276.00;5055768;28;20207;-69
2022/03/13 10:08:28;;;;;;;11.93;4.83;;;;;;;9.80;44.88;96267.84;5056169;28;20236;-69
2022/03/13 10:10:55;;;;;;;9.07;5.07;;;;;;;10.17;44.49;96266.22;5055473;28;20270;-69
2022/03/13 10:13:34;;;;;;;12.67;4.07;;;;;;;10.57;43.58;96264.13;5055326;28;20220;-69
2022/03/13 10:16:01;;;;;;;12.27;5.07;;;;;;;10.52;43.23;96260.38;5053170;28;20227;-71
2022/03/13 10:18:27;;;;;;;11.10;4.50;;;;;;;10.64;43.27;96254.53;5055979;28;20216;-71
2022/03/13 10:20:56;;;;;;;10.80;4.47;;;;;;;10.72;43.70;96254.47;5055652;28;20205;-71
2022/03/13 10:23:23;;;;;;;8.97;4.00;;;;;;;10.58;44.08;96247.31;5054859;28;20224;-71
2022/03/13 10:25:51;;;;;;;15.27;4.53;;;;;;;10.88;44.06;96245.59;5054262;28;21390;-71
2022/03/13 10:28:21;;;;;;;11.10;5.13;;;;;;;11.30;45.56;96247.47;5055840;28;20204;-70
2022/03/13 10:30:50;;;;;;;14.40;5.80;;;;;;;11.13;44.48;96238.06;5054711;28;20235;-70
2022/03/13 10:33:17;;;;;;;10.97;4.53;;;;;;;11.65;45.31;96236.22;5054364;28;20307;-70
2022/03/13 10:35:44;;;;;;;12.97;5.63;;;;;;;12.24;46.19;96228.81;5056035;28;20286;-70
2022/03/13 10:38:17;;;;;;;17.07;5.80;;;;;;;12.15;41.18;96223.81;5060821;28;20299;-70
2022/03/13 10:40:45;;;;;;;16.23;5.87;;;;;;;11.76;42.31;96218.09;5056925;28;20204;-70
2022/03/13 10:43:18;;;;;;;19.67;5.53;;;;;;;12.32;43.30;96220.78;5061542;28;20233;-70
2022/03/13 10:45:51;;;;;;;12.20;5.77;;;;;;;12.52;43.60;96221.75;5065362;28;20203;-70
2022/03/13 10:48:28;;;;;;;11.90;5.10;;;;;;;13.33;41.78;96217.56;5058710;28;20285;-70
2022/03/13 10:50:56;;;;;;;17.13;6.13;;;;;;;13.21;41.20;96215.66;5062051;28;20193;-70
2022/03/13 10:53:24;;;;;;;15.98;5.20;;;;;;;13.71;41.43;96202.91;5061814;28;20236;-71
2022/03/13 10:56:09;;;;;;;17.10;6.50;;;;;;;13.37;39.69;96212.72;5058342;28;20770;-71
2022/03/13 10:58:37;;;;;;;12.85;5.18;;;;;;;13.48;45.94;96205.84;5059177;28;20212;-70
2022/03/13 11:01:07;;;;;;;19.85;7.10;;;;;;;13.38;39.46;96210.69;5059093;28;21120;-70
2022/03/13 11:03:34;;;;;;;13.70;5.53;;;;;;;13.83;43.25;96198.69;5059933;28;20365;-70
2022/03/13 11:06:01;;;;;;;9.98;4.47;;;;;;;14.44;42.95;96193.22;5066771;28;20204;-71
2022/03/13 11:08:30;;;;;;;10.88;5.95;;;;;;;14.80;38.44;96192.63;5058290;28;20212;-71
2022/03/13 11:10:58;;;;;;;13.35;5.38;;;;;;;14.97;37.91;96185.88;5066151;28;20303;-70
2022/03/13 11:13:26;;;;;;;12.10;6.00;;;;;;;15.11;37.37;96187.53;5069333;28;20216;-70
2022/03/13 11:15:55;;;;;;;18.15;7.30;;;;;;;14.76;38.02;96188.72;5069262;28;20207;-70
2022/03/13 11:18:23;;;;;;;17.77;6.03;;;;;;;14.84;37.81;96191.19;5068506;28;20240;-70
2022/03/13 11:20:50;;;;;;;15.85;5.68;;;;;;;14.35;38.69;96183.81;5067503;28;20211;-70
2022/03/13 11:23:17;;;;;;;14.63;5.68;;;;;;;14.14;39.92;96178.63;5068488;28;20244;-70
2022/03/13 11:25:47;;;;;;;17.48;5.18;;;;;;;14.63;39.41;96170.16;5056581;28;20258;-71
2022/03/13 11:28:14;;;;;;;16.05;6.18;;;;;;;14.51;37.73;96170.16;5059028;28;20208;-71
2022/03/13 11:30:40;;;;;;;12.10;5.05;;;;;;;14.29;38.87;96166.03;5059169;28;20205;-71
2022/03/13 11:33:08;;;;;;;17.92;6.72;;;;;;;14.59;38.92;96160.19;5059683;28;20239;-70
2022/03/13 11:35:34;;;;;;;11.10;5.00;;;;;;;13.95;38.27;96155.56;5068966;28;20583;-70
2022/03/13 11:38:19;;;;;;;11.55;5.03;;;;;;;14.53;38.51;96154.88;5071627;28;20217;-70